createdAt,value
2023-02-23T00:00:32.643Z,5.09
2023-02-23T00:03:01.837Z,5.06
2023-02-23T00:05:32.035Z,5.05
2023-02-23T00:07:59.361Z,5.02
2023-02-23T00:10:30.554Z,4.99
2023-02-23T00:12:59.182Z,4.96
2023-02-23T00:15:27.472Z,4.94
2023-02-23T00:17:57.901Z,4.90
2023-02-23T00:20:27.265Z,4.88
2023-02-23T00:22:56.483Z,4.88
2023-02-23T00:25:24.801Z,4.86
2023-02-23T00:27:52.521Z,4.83
2023-02-23T00:30:20.426Z,4.83
2023-02-23T00:32:47.393Z,4.82
2023-02-23T00:35:17.641Z,4.82
2023-02-23T00:37:48.727Z,4.82
2023-02-23T00:40:17.324Z,4.83
2023-02-23T00:42:47.089Z,4.84
2023-02-23T00:45:15.130Z,4.85
2023-02-23T00:47:44.447Z,4.86
2023-02-23T00:50:15.140Z,4.86
2023-02-23T00:52:43.746Z,4.87
2023-02-23T00:55:15.405Z,4.85
2023-02-23T00:57:42.187Z,4.85
2023-02-23T01:00:18.814Z,4.83
2023-02-23T01:02:45.648Z,4.79
2023-02-23T01:05:13.095Z,4.79
2023-02-23T01:07:40.795Z,4.77
2023-02-23T01:10:19.342Z,4.76
2023-02-23T01:12:48.518Z,4.74
2023-02-23T01:15:15.837Z,4.74
2023-02-23T01:17:43.091Z,4.73
2023-02-23T01:20:19.503Z,4.74
2023-02-23T01:22:51.683Z,4.75
2023-02-23T01:25:18.878Z,4.72
2023-02-23T01:27:45.962Z,4.70
2023-02-23T01:30:14.994Z,4.66
2023-02-23T01:32:41.732Z,4.64
2023-02-23T01:35:11.215Z,4.59
2023-02-23T01:37:42.613Z,4.58
2023-02-23T01:40:15.448Z,4.54
2023-02-23T01:42:45.503Z,4.51
2023-02-23T01:45:34.820Z,4.45
2023-02-23T01:48:06.806Z,4.41
2023-02-23T01:50:42.736Z,4.38
2023-02-23T01:53:10.464Z,4.38
2023-02-23T01:55:38.337Z,4.37
2023-02-23T01:58:15.422Z,4.37
2023-02-23T02:00:50.110Z,4.35
2023-02-23T02:03:27.062Z,4.32
2023-02-23T02:05:54.843Z,4.32
2023-02-23T02:08:24.480Z,4.30
2023-02-23T02:10:56.382Z,4.30
2023-02-23T02:13:29.906Z,4.28
2023-02-23T02:16:15.477Z,4.26
2023-02-23T02:18:54.780Z,4.27
2023-02-23T02:21:41.978Z,4.23
2023-02-23T02:24:26.968Z,4.19
2023-02-23T02:27:27.086Z,4.18
2023-02-23T02:29:53.720Z,4.12
2023-02-23T02:32:42.076Z,4.08
2023-02-23T02:35:47.786Z,4.07
2023-02-23T02:38:30.943Z,4.04
2023-02-23T02:41:08.936Z,4.02
2023-02-23T02:43:51.207Z,3.98
2023-02-23T02:46:23.305Z,3.96
2023-02-23T02:49:13.627Z,3.94
2023-02-23T02:52:17.856Z,3.91
2023-02-23T02:54:53.712Z,3.89
2023-02-23T02:57:25.371Z,3.85
2023-02-23T03:00:11.396Z,3.81
2023-02-23T03:02:58.631Z,3.80
2023-02-23T03:05:53.695Z,3.78
2023-02-23T03:08:52.890Z,3.75
2023-02-23T03:11:38.378Z,3.73
2023-02-23T03:14:29.682Z,3.70
2023-02-23T03:17:17.930Z,3.68
2023-02-23T03:20:10.512Z,3.66
2023-02-23T03:23:14.671Z,3.67
2023-02-23T03:26:23.689Z,3.67
2023-02-23T03:29:24.630Z,3.68
2023-02-23T03:32:26.507Z,3.68
2023-02-23T03:35:38.110Z,3.63
2023-02-23T03:38:39.610Z,3.61
2023-02-23T03:41:27.236Z,3.58
2023-02-23T03:44:18.891Z,3.58
2023-02-23T03:47:06.529Z,3.56
2023-02-23T03:49:57.472Z,3.53
2023-02-23T03:52:51.111Z,3.52
2023-02-23T03:55:40.773Z,3.50
2023-02-23T03:58:31.345Z,3.48
2023-02-23T04:01:19.818Z,3.45
2023-02-23T04:04:07.323Z,3.44
2023-02-23T04:07:00.052Z,3.39
2023-02-23T04:09:45.781Z,3.36
2023-02-23T04:12:36.889Z,3.33
2023-02-23T04:15:21.643Z,3.31
2023-02-23T04:17:48.616Z,3.30
2023-02-23T04:20:15.501Z,3.29
2023-02-23T04:22:42.290Z,3.28
2023-02-23T04:25:10.386Z,3.25
2023-02-23T04:27:37.379Z,3.25
2023-02-23T04:30:05.256Z,3.23
2023-02-23T04:32:32.981Z,3.19
2023-02-23T04:34:59.709Z,3.17
2023-02-23T04:37:26.498Z,3.15
2023-02-23T04:39:53.230Z,3.13
2023-02-23T04:42:20.088Z,3.11
2023-02-23T04:44:46.869Z,3.09
2023-02-23T04:47:15.798Z,3.10
2023-02-23T04:49:43.575Z,3.09
2023-02-23T04:52:10.336Z,3.08
2023-02-23T04:54:40.623Z,3.06
2023-02-23T04:57:07.703Z,3.04
2023-02-23T04:59:34.552Z,3.02
2023-02-23T05:02:02.327Z,3.00
2023-02-23T05:04:29.306Z,2.98
2023-02-23T05:06:56.315Z,2.96
2023-02-23T05:09:23.108Z,2.95
2023-02-23T05:11:49.755Z,2.94
2023-02-23T05:14:16.488Z,2.94
2023-02-23T05:16:43.360Z,2.90
2023-02-23T05:19:10.518Z,2.88
2023-02-23T05:21:37.261Z,2.86
2023-02-23T05:24:04.356Z,2.84
2023-02-23T05:26:31.090Z,2.81
2023-02-23T05:28:57.941Z,2.81
2023-02-23T05:31:25.222Z,2.78
2023-02-23T05:33:52.426Z,2.80
2023-02-23T05:36:21.322Z,2.80
2023-02-23T05:38:49.181Z,2.81
2023-02-23T05:41:20.752Z,2.81
2023-02-23T05:43:48.827Z,2.82
2023-02-23T05:46:19.400Z,2.81
2023-02-23T05:48:46.118Z,2.79
2023-02-23T05:51:15.351Z,2.78
2023-02-23T05:53:42.579Z,2.75
2023-02-23T05:56:13.211Z,2.73
2023-02-23T05:58:40.611Z,2.73
2023-02-23T06:01:07.351Z,2.74
2023-02-23T06:03:34.532Z,2.73
2023-02-23T06:06:02.490Z,2.72
2023-02-23T06:08:29.225Z,2.71
2023-02-23T06:10:56.026Z,2.70
2023-02-23T06:13:22.928Z,2.68
2023-02-23T06:15:49.764Z,2.68
2023-02-23T06:18:17.741Z,2.67
2023-02-23T06:20:46.207Z,2.69
2023-02-23T06:23:13.489Z,2.70
2023-02-23T06:25:47.349Z,2.68
2023-02-23T06:28:14.383Z,2.68
2023-02-23T06:30:41.417Z,2.66
2023-02-23T06:33:08.289Z,2.63
2023-02-23T06:35:35.522Z,2.60
2023-02-23T06:38:02.301Z,2.55
2023-02-23T06:40:29.596Z,2.56
2023-02-23T06:42:56.402Z,2.56
2023-02-23T06:45:23.190Z,2.59
2023-02-23T06:47:50.142Z,2.60
2023-02-23T06:50:17.703Z,2.60
2023-02-23T06:52:44.366Z,2.60
2023-02-23T06:55:11.354Z,2.61
2023-02-23T06:57:38.447Z,2.61
2023-02-23T07:00:05.861Z,2.61
2023-02-23T07:02:32.752Z,2.59
2023-02-23T07:04:59.451Z,2.59
2023-02-23T07:07:26.130Z,2.60
2023-02-23T07:09:52.913Z,2.58
2023-02-23T07:12:19.713Z,2.59
2023-02-23T07:14:46.784Z,2.58
2023-02-23T07:17:13.816Z,2.59
2023-02-23T07:19:40.497Z,2.58
2023-02-23T07:22:07.285Z,2.56
2023-02-23T07:24:34.081Z,2.57
2023-02-23T07:27:01.067Z,2.56
2023-02-23T07:29:28.338Z,2.58
2023-02-23T07:31:55.653Z,2.59
2023-02-23T07:34:22.568Z,2.60
2023-02-23T07:36:49.342Z,2.60
2023-02-23T07:39:16.200Z,2.61
2023-02-23T07:41:42.989Z,2.61
2023-02-23T07:44:09.706Z,2.60
2023-02-23T07:46:36.601Z,2.62
2023-02-23T07:49:03.939Z,2.62
2023-02-23T07:51:30.629Z,2.64
2023-02-23T07:53:57.456Z,2.65
2023-02-23T07:56:24.232Z,2.66
2023-02-23T07:58:50.906Z,2.68
2023-02-23T08:01:18.606Z,2.70
2023-02-23T08:03:49.756Z,2.73
2023-02-23T08:06:17.914Z,2.77
2023-02-23T08:08:44.648Z,2.81
2023-02-23T08:11:11.998Z,2.87
2023-02-23T08:13:38.876Z,2.93
2023-02-23T08:16:05.837Z,2.96
2023-02-23T08:18:32.812Z,3.04
2023-02-23T08:21:04.193Z,3.13
2023-02-23T08:23:32.806Z,3.20
2023-02-23T08:26:00.269Z,3.28
2023-02-23T08:28:28.752Z,3.35
2023-02-23T08:30:55.634Z,3.42
2023-02-23T08:34:22.132Z,3.49
2023-02-23T08:36:50.011Z,3.58
2023-02-23T08:39:16.870Z,3.62
2023-02-23T08:41:43.521Z,3.69
2023-02-23T08:44:10.935Z,3.76
2023-02-23T08:46:37.707Z,3.81
2023-02-23T08:49:06.043Z,3.90
2023-02-23T08:51:35.272Z,3.95
2023-02-23T08:54:02.173Z,4.02
2023-02-23T08:56:28.968Z,4.09
2023-02-23T08:58:56.179Z,4.17
2023-02-23T09:01:23.090Z,4.25
2023-02-23T09:03:50.159Z,4.33
2023-02-23T09:06:20.783Z,4.38
2023-02-23T09:08:47.852Z,4.41
2023-02-23T09:11:14.512Z,4.42
2023-02-23T09:13:41.478Z,4.44
2023-02-23T09:16:08.287Z,4.44
2023-02-23T09:18:36.078Z,4.48
2023-02-23T09:21:08.664Z,4.51
2023-02-23T09:23:36.106Z,4.55
2023-02-23T09:26:07.937Z,4.59
2023-02-23T09:28:36.354Z,4.65
2023-02-23T09:31:18.781Z,4.76
2023-02-23T09:33:46.119Z,4.89
2023-02-23T09:36:19.375Z,5.07
2023-02-23T09:38:48.523Z,5.27
2023-02-23T09:41:45.429Z,5.47
2023-02-23T09:44:42.610Z,5.69
2023-02-23T09:47:41.595Z,5.91
2023-02-23T09:50:22.853Z,6.09
2023-02-23T09:52:58.311Z,6.24
2023-02-23T09:55:26.523Z,6.38
2023-02-23T09:57:54.241Z,6.52
2023-02-23T10:00:27.848Z,6.61
2023-02-23T10:03:20.523Z,6.75
2023-02-23T10:05:54.932Z,6.87
2023-02-23T10:08:40.508Z,6.99
2023-02-23T10:11:19.507Z,7.05
2023-02-23T10:13:49.085Z,7.15
2023-02-23T10:16:24.242Z,7.21
2023-02-23T10:19:20.070Z,7.30
2023-02-23T10:21:56.081Z,7.41
2023-02-23T10:24:34.957Z,7.49
2023-02-23T10:27:11.466Z,7.59
2023-02-23T10:29:48.039Z,7.62
2023-02-23T10:32:27.932Z,7.66
2023-02-23T10:34:56.767Z,7.76
2023-02-23T10:37:25.760Z,7.79
2023-02-23T10:39:53.574Z,7.90
2023-02-23T10:42:28.861Z,7.99
2023-02-23T10:44:56.954Z,8.07
2023-02-23T10:47:30.228Z,8.15
2023-02-23T10:49:57.859Z,8.23
2023-02-23T10:52:32.336Z,8.30
2023-02-23T10:55:00.706Z,8.39
2023-02-23T10:57:34.119Z,8.41
2023-02-23T11:00:28.007Z,8.46
2023-02-23T11:02:58.412Z,8.53
2023-02-23T11:05:34.171Z,8.59
2023-02-23T11:08:29.463Z,8.71
2023-02-23T11:11:03.070Z,8.85
2023-02-23T11:13:36.244Z,8.95
2023-02-23T11:16:14.830Z,9.01
2023-02-23T11:18:50.792Z,9.18
2023-02-23T11:21:26.744Z,9.33
2023-02-23T11:23:56.023Z,9.45
2023-02-23T11:26:31.669Z,9.50
2023-02-23T11:29:02.304Z,9.58
2023-02-23T11:31:35.533Z,9.70
2023-02-23T11:34:05.079Z,9.81
2023-02-23T11:36:35.302Z,10.08
2023-02-23T11:39:18.585Z,10.25
2023-02-23T11:41:45.171Z,10.33
2023-02-23T11:44:23.580Z,10.36
2023-02-23T11:46:51.772Z,10.43
2023-02-23T11:49:24.037Z,10.47
2023-02-23T11:51:54.927Z,10.40
2023-02-23T11:54:33.459Z,10.49
2023-02-23T11:57:02.913Z,10.52
2023-02-23T11:59:40.617Z,10.80
2023-02-23T12:02:25.249Z,11.40
2023-02-23T12:05:15.856Z,11.50
2023-02-23T12:07:56.048Z,11.19
2023-02-23T12:10:38.850Z,11.06
2023-02-23T12:13:26.695Z,10.95
2023-02-23T12:16:05.633Z,10.46
2023-02-23T12:19:01.166Z,10.21
2023-02-23T12:21:40.155Z,10.06
2023-02-23T12:24:32.616Z,9.97
2023-02-23T12:27:14.285Z,9.97
2023-02-23T12:29:59.673Z,9.94
2023-02-23T12:32:51.402Z,9.89
2023-02-23T12:35:23.763Z,9.95
2023-02-23T12:38:00.296Z,10.08
2023-02-23T12:40:30.240Z,10.36
2023-02-23T12:43:02.342Z,10.76
2023-02-23T12:45:52.733Z,10.87
2023-02-23T12:48:40.050Z,10.95
2023-02-23T12:51:40.555Z,11.18
2023-02-23T12:54:11.646Z,11.45
2023-02-23T12:56:42.607Z,11.80
2023-02-23T12:59:13.636Z,12.38
2023-02-23T13:01:56.380Z,13.16
2023-02-23T13:04:41.426Z,14.12
2023-02-23T13:07:14.421Z,15.06
2023-02-23T13:09:40.899Z,15.89
2023-02-23T13:12:26.533Z,16.08
2023-02-23T13:15:32.611Z,16.16
2023-02-23T13:18:27.505Z,16.69
2023-02-23T13:21:08.471Z,16.91
2023-02-23T13:23:59.560Z,17.29
2023-02-23T13:26:34.949Z,17.87
2023-02-23T13:29:16.639Z,17.93
2023-02-23T13:31:44.865Z,18.46
2023-02-23T13:34:26.688Z,18.98
2023-02-23T13:36:54.785Z,19.22
2023-02-23T13:40:00.137Z,19.59
2023-02-23T13:42:37.004Z,20.07
2023-02-23T13:45:22.898Z,20.26
2023-02-23T13:48:12.544Z,20.08
2023-02-23T13:50:54.965Z,20.74
2023-02-23T13:53:55.469Z,21.87
2023-02-23T13:56:24.485Z,23.20
2023-02-23T13:59:33.453Z,23.88
2023-02-23T14:02:16.429Z,24.09
2023-02-23T14:04:43.528Z,23.97
2023-02-23T14:07:10.466Z,23.28
2023-02-23T14:09:54.157Z,23.18
2023-02-23T14:12:35.866Z,22.83
2023-02-23T14:15:25.476Z,22.43
2023-02-23T14:18:03.701Z,22.11
2023-02-23T14:20:39.772Z,21.78
2023-02-23T14:23:21.648Z,21.36
2023-02-23T14:26:12.600Z,20.88
2023-02-23T14:28:45.449Z,20.17
2023-02-23T14:31:20.771Z,19.39
2023-02-23T14:33:49.734Z,18.54
2023-02-23T14:36:22.564Z,17.75
2023-02-23T14:39:01.363Z,17.56
2023-02-23T14:41:34.154Z,17.71
2023-02-23T14:44:12.368Z,17.97
2023-02-23T14:47:02.763Z,18.05
2023-02-23T14:49:35.135Z,17.79
2023-02-23T14:52:24.788Z,17.74
2023-02-23T14:54:52.553Z,17.30
2023-02-23T14:57:22.172Z,16.85
2023-02-23T14:59:55.106Z,16.57
2023-02-23T15:02:24.582Z,16.13
2023-02-23T15:04:51.682Z,15.68
2023-02-23T15:07:40.555Z,15.37
2023-02-23T15:10:18.455Z,15.10
2023-02-23T15:12:47.708Z,14.88
2023-02-23T15:15:19.922Z,14.62
2023-02-23T15:17:50.012Z,14.43
2023-02-23T15:20:32.499Z,14.22
2023-02-23T15:23:02.738Z,14.06
2023-02-23T15:25:38.962Z,13.99
2023-02-23T15:28:25.589Z,13.74
2023-02-23T15:31:00.408Z,13.52
2023-02-23T15:33:30.642Z,13.29
2023-02-23T15:36:22.347Z,13.09
2023-02-23T15:38:53.167Z,13.06
2023-02-23T15:41:36.864Z,12.89
2023-02-23T15:44:13.942Z,12.73
2023-02-23T15:46:42.608Z,12.56
2023-02-23T15:49:13.606Z,12.29
2023-02-23T15:51:48.900Z,12.07
2023-02-23T15:54:30.698Z,11.87
2023-02-23T15:57:02.973Z,11.73
2023-02-23T15:59:34.984Z,11.74
2023-02-23T16:02:03.878Z,11.74
2023-02-23T16:04:42.515Z,11.70
2023-02-23T16:07:18.943Z,11.59
2023-02-23T16:10:03.908Z,11.49
2023-02-23T16:12:33.288Z,11.43
2023-02-23T16:15:05.688Z,11.33
2023-02-23T16:17:45.728Z,11.22
2023-02-23T16:20:42.575Z,11.14
2023-02-23T16:23:33.229Z,11.03
2023-02-23T16:26:10.124Z,11.02
2023-02-23T16:28:43.357Z,11.00
2023-02-23T16:31:13.474Z,10.93
2023-02-23T16:33:54.653Z,10.85
2023-02-23T16:36:25.042Z,10.81
2023-02-23T16:39:02.642Z,10.74
2023-02-23T16:41:32.487Z,10.70
2023-02-23T16:44:02.050Z,10.67
2023-02-23T16:46:50.430Z,10.65
2023-02-23T16:49:17.472Z,10.58
2023-02-23T16:51:44.161Z,10.52
2023-02-23T16:54:10.973Z,10.50
2023-02-23T16:56:39.853Z,10.46
2023-02-23T16:59:10.297Z,10.41
2023-02-23T17:01:37.415Z,10.39
2023-02-23T17:04:04.149Z,10.34
2023-02-23T17:06:30.892Z,10.28
2023-02-23T17:08:58.225Z,10.22
2023-02-23T17:11:26.046Z,10.17
2023-02-23T17:13:52.792Z,10.09
2023-02-23T17:16:20.069Z,10.01
2023-02-23T17:18:47.029Z,9.96
2023-02-23T17:21:14.837Z,9.89
2023-02-23T17:23:51.309Z,9.82
2023-02-23T17:26:21.424Z,9.75
2023-02-23T17:28:48.637Z,9.71
2023-02-23T17:31:17.965Z,9.68
2023-02-23T17:33:45.830Z,9.64
2023-02-23T17:36:15.580Z,9.60
2023-02-23T17:38:44.856Z,9.55
2023-02-23T17:41:20.165Z,9.51
2023-02-23T17:43:47.292Z,9.49
2023-02-23T17:46:17.228Z,9.44
2023-02-23T17:48:44.926Z,9.42
2023-02-23T17:51:13.373Z,9.39
2023-02-23T17:53:40.661Z,9.36
2023-02-23T17:56:08.507Z,9.32
2023-02-23T17:58:36.492Z,9.28
2023-02-23T18:01:05.964Z,9.23
2023-02-23T18:03:34.828Z,9.22
2023-02-23T18:06:07.011Z,9.20
2023-02-23T18:08:34.499Z,9.18
2023-02-23T18:11:01.480Z,9.16
2023-02-23T18:13:29.868Z,9.14
2023-02-23T18:16:05.980Z,9.12
2023-02-23T18:18:32.965Z,9.12
2023-02-23T18:21:04.567Z,9.10
2023-02-23T18:23:34.216Z,9.06
2023-02-23T18:26:09.409Z,9.03
2023-02-23T18:28:37.464Z,9.00
2023-02-23T18:31:04.486Z,8.98
2023-02-23T18:33:31.790Z,8.96
2023-02-23T18:35:59.020Z,8.93
2023-02-23T18:38:25.765Z,8.89
2023-02-23T18:40:52.745Z,8.85
2023-02-23T18:43:19.624Z,8.82
2023-02-23T18:46:29.615Z,8.79
2023-02-23T18:49:38.838Z,8.76
2023-02-23T18:53:05.323Z,8.79
2023-02-23T19:00:07.483Z,8.74
2023-02-23T19:03:32.012Z,8.72
2023-02-23T19:10:50.906Z,8.65
2023-02-23T19:13:54.764Z,8.63
2023-02-23T19:21:05.409Z,8.58
2023-02-23T19:24:31.890Z,8.54
2023-02-23T19:31:34.939Z,8.47
2023-02-23T19:35:01.514Z,8.45
2023-02-23T19:38:29.049Z,8.42
2023-02-23T19:41:55.493Z,8.42
2023-02-23T19:45:22.329Z,8.40
2023-02-23T19:51:31.529Z,8.38
2023-02-23T19:54:58.089Z,8.37
2023-02-23T19:57:26.179Z,8.36
2023-02-23T20:00:52.741Z,8.35
2023-02-23T20:03:25.069Z,8.35
2023-02-23T20:05:51.836Z,8.34
2023-02-23T20:08:19.474Z,8.32
2023-02-23T20:14:39.717Z,8.27
2023-02-23T20:17:07.346Z,8.28
2023-02-23T20:20:12.696Z,8.28
2023-02-23T20:23:23.446Z,8.27
2023-02-23T20:25:50.372Z,8.26
2023-02-23T20:28:17.792Z,8.26
2023-02-23T20:30:48.271Z,8.25
2023-02-23T20:33:15.557Z,8.23
2023-02-23T20:35:42.820Z,8.20
2023-02-23T20:38:10.090Z,8.18
2023-02-23T20:40:39.513Z,8.18
2023-02-23T20:43:06.369Z,8.15
2023-02-23T20:45:33.193Z,8.16
2023-02-23T20:48:00.154Z,8.14
2023-02-23T20:50:28.995Z,8.13
2023-02-23T20:52:57.905Z,8.12
2023-02-23T20:55:27.504Z,8.11
2023-02-23T20:57:55.664Z,8.10
2023-02-23T21:00:24.160Z,8.08
2023-02-23T21:02:55.866Z,8.07
2023-02-23T21:05:27.837Z,8.07
2023-02-23T21:07:59.095Z,8.06
2023-02-23T21:10:25.840Z,8.07
2023-02-23T21:12:53.115Z,8.05
2023-02-23T21:15:19.965Z,8.03
2023-02-23T21:17:47.048Z,8.04
2023-02-23T21:20:14.462Z,8.04
2023-02-23T21:22:41.465Z,8.03
2023-02-23T21:25:11.956Z,8.03
2023-02-23T21:27:38.796Z,8.02
2023-02-23T21:30:06.438Z,8.01
2023-02-23T21:32:35.530Z,8.01
2023-02-23T21:35:04.758Z,8.01
2023-02-23T21:37:31.719Z,7.99
2023-02-23T21:43:46.916Z,8.00
2023-02-23T21:46:16.293Z,7.99
2023-02-23T21:48:43.803Z,7.97
2023-02-23T21:51:13.286Z,7.97
2023-02-23T21:53:43.047Z,7.95
2023-02-23T21:56:18.457Z,7.94
2023-02-23T21:58:53.700Z,7.92
2023-02-23T22:01:27.626Z,7.90
2023-02-23T22:03:58.166Z,7.89
2023-02-23T22:06:27.543Z,7.89
2023-02-23T22:08:54.630Z,7.86
2023-02-23T22:11:26.942Z,7.84
2023-02-23T22:13:59.544Z,7.82
2023-02-23T22:16:32.645Z,7.82
2023-02-23T22:19:04.062Z,7.80
2023-02-23T22:21:36.953Z,7.78
2023-02-23T22:24:05.745Z,7.77
2023-02-23T22:26:55.923Z,7.76
2023-02-23T22:29:25.586Z,7.73
2023-02-23T22:32:20.236Z,7.72
2023-02-23T22:35:47.053Z,7.72
2023-02-23T22:42:56.560Z,7.67
2023-02-23T22:46:23.115Z,7.66
2023-02-23T22:53:40.940Z,7.63
2023-02-23T22:56:08.635Z,7.60
2023-02-23T22:59:17.770Z,7.59
2023-02-23T23:05:37.506Z,7.57
2023-02-23T23:08:04.515Z,7.57
2023-02-23T23:11:33.850Z,7.55
2023-02-23T23:15:00.317Z,7.54
2023-02-23T23:22:09.505Z,7.47
2023-02-23T23:25:35.943Z,7.47
2023-02-23T23:29:02.864Z,7.45
2023-02-23T23:32:29.422Z,7.46
2023-02-23T23:35:56.143Z,7.44
2023-02-23T23:39:22.596Z,7.44
2023-02-23T23:42:49.198Z,7.40
2023-02-23T23:49:57.217Z,7.36
2023-02-23T23:53:23.681Z,7.37
